createdAt,value
2023-05-20T00:03:46.089Z,10.31
2023-05-20T00:08:48.083Z,10.44
2023-05-20T00:13:50.003Z,10.38
2023-05-20T00:18:52.098Z,10.32
2023-05-20T00:23:54.080Z,10.05
2023-05-20T00:28:56.100Z,10.10
2023-05-20T00:33:58.139Z,10.14
2023-05-20T00:39:00.102Z,10.25
2023-05-20T00:44:02.046Z,10.22
2023-05-20T00:49:04.220Z,10.17
2023-05-20T00:54:06.298Z,9.98
2023-05-20T00:59:08.273Z,9.91
2023-05-20T01:04:10.237Z,10.05
2023-05-20T01:09:13.352Z,9.96
2023-05-20T01:14:15.286Z,10.03
2023-05-20T01:19:35.848Z,9.94
2023-05-20T01:24:37.916Z,9.98
2023-05-20T01:29:40.528Z,10.01
2023-05-20T01:34:42.583Z,9.98
2023-05-20T01:39:44.569Z,9.89
2023-05-20T01:44:46.451Z,9.95
2023-05-20T01:49:48.447Z,9.87
2023-05-20T01:54:50.404Z,9.94
2023-05-20T01:59:52.429Z,9.89
2023-05-20T02:04:54.526Z,9.85
2023-05-20T02:09:56.513Z,9.87
2023-05-20T02:14:58.538Z,9.88
2023-05-20T02:20:00.672Z,9.85
2023-05-20T02:25:02.994Z,9.86
2023-05-20T02:30:06.977Z,9.82
2023-05-20T02:35:09.390Z,10.03
2023-05-20T02:40:11.569Z,10.11
2023-05-20T02:45:13.669Z,10.10
2023-05-20T02:50:15.733Z,10.09
2023-05-20T02:55:17.778Z,10.06
2023-05-20T03:00:19.711Z,10.14
2023-05-20T03:05:21.723Z,10.25
2023-05-20T03:10:23.689Z,10.19
2023-05-20T03:15:25.684Z,10.26
2023-05-20T03:20:27.618Z,10.20
2023-05-20T03:25:31.170Z,10.28
2023-05-20T03:30:33.197Z,10.49
2023-05-20T03:35:35.413Z,10.41
2023-05-20T03:40:37.391Z,10.26
2023-05-20T03:45:39.338Z,10.63
2023-05-20T03:50:41.302Z,10.77
2023-05-20T03:55:43.269Z,10.85
2023-05-20T04:00:45.219Z,10.96
2023-05-20T04:05:47.194Z,10.91
2023-05-20T04:10:49.175Z,11.17
2023-05-20T04:15:52.353Z,10.94
2023-05-20T04:20:57.531Z,10.96
2023-05-20T04:25:59.530Z,11.29
2023-05-20T04:31:01.980Z,11.51
2023-05-20T04:36:04.933Z,11.34
2023-05-20T04:41:07.064Z,11.57
2023-05-20T04:46:09.036Z,11.92
2023-05-20T04:51:11.386Z,12.64
2023-05-20T04:56:13.326Z,12.83
2023-05-20T05:01:15.348Z,12.65
2023-05-20T05:06:17.574Z,12.40
2023-05-20T05:11:19.625Z,12.64
2023-05-20T05:16:21.716Z,12.86
2023-05-20T05:21:23.747Z,13.01
2023-05-20T05:26:26.239Z,12.91
2023-05-20T05:31:28.320Z,12.69
2023-05-20T05:36:33.680Z,13.32
2023-05-20T05:41:35.750Z,13.19
2023-05-20T05:46:37.859Z,13.29
2023-05-20T05:51:39.841Z,14.23
2023-05-20T05:56:41.931Z,14.40
2023-05-20T06:01:43.953Z,14.74
2023-05-20T06:06:46.025Z,15.54
2023-05-20T06:11:47.895Z,16.46
2023-05-20T06:16:49.771Z,17.25
2023-05-20T06:21:51.748Z,17.17
2023-05-20T06:26:53.757Z,18.19
2023-05-20T06:31:55.719Z,19.11
2023-05-20T06:36:57.732Z,20.09
2023-05-20T06:41:59.407Z,20.78
2023-05-20T06:47:01.348Z,21.95
2023-05-20T06:52:03.112Z,21.62
2023-05-20T06:57:05.326Z,22.02
2023-05-20T07:02:07.505Z,24.02
2023-05-20T07:07:09.538Z,27.04
2023-05-20T07:12:11.551Z,24.42
2023-05-20T07:17:13.469Z,22.66
2023-05-20T07:22:15.288Z,22.84
2023-05-20T07:27:17.211Z,24.10
2023-05-20T07:32:19.156Z,22.65
2023-05-20T07:37:21.082Z,25.00
2023-05-20T07:42:23.041Z,23.90
2023-05-20T07:47:25.141Z,22.61
2023-05-20T07:52:27.134Z,21.76
2023-05-20T07:57:29.033Z,19.10
2023-05-20T08:02:30.989Z,20.41
2023-05-20T08:07:33.051Z,19.83
2023-05-20T08:12:34.727Z,18.24
2023-05-20T08:17:36.526Z,18.39
2023-05-20T08:22:39.011Z,18.89
2023-05-20T08:27:40.910Z,18.09
2023-05-20T08:32:42.834Z,17.53
2023-05-20T08:37:44.620Z,18.19
2023-05-20T08:42:49.691Z,18.50
2023-05-20T08:47:51.610Z,17.35
2023-05-20T08:52:53.775Z,17.69
2023-05-20T08:57:55.918Z,17.38
2023-05-20T09:03:01.015Z,16.66
2023-05-20T09:08:12.509Z,16.60
2023-05-20T09:13:14.527Z,16.93
2023-05-20T09:18:16.407Z,16.66
2023-05-20T09:23:19.397Z,16.56
2023-05-20T09:28:23.193Z,16.89
2023-05-20T09:33:28.219Z,16.43
2023-05-20T09:38:31.233Z,16.37
2023-05-20T09:43:33.241Z,16.70
2023-05-20T09:48:38.173Z,16.46
2023-05-20T09:53:40.277Z,16.22
2023-05-20T09:58:42.988Z,15.47
2023-05-20T10:03:45.022Z,15.57
2023-05-20T10:09:14.813Z,16.12
2023-05-20T10:14:26.755Z,16.59
2023-05-20T10:19:35.099Z,16.33
2023-05-20T10:24:41.298Z,16.19
2023-05-20T10:34:53.938Z,16.53
2023-05-20T10:40:11.731Z,16.37
2023-05-20T10:45:25.324Z,16.30
2023-05-20T10:50:37.055Z,16.13
2023-05-20T10:55:39.720Z,16.18
2023-05-20T11:00:41.904Z,16.24
2023-05-20T11:05:44.848Z,15.83
2023-05-20T11:10:46.700Z,15.87
2023-05-20T11:15:49.398Z,15.14
2023-05-20T11:20:51.368Z,14.65
2023-05-20T11:25:53.525Z,14.14
2023-05-20T11:30:55.578Z,14.17
2023-05-20T11:35:57.395Z,14.37
2023-05-20T11:40:59.584Z,14.73
2023-05-20T11:46:01.400Z,14.49
2023-05-20T11:51:03.300Z,14.87
2023-05-20T11:56:05.333Z,14.81
2023-05-20T12:01:21.125Z,15.11
2023-05-20T12:06:24.001Z,15.28
2023-05-20T12:11:25.915Z,15.27
2023-05-20T12:16:27.938Z,15.29
2023-05-20T12:21:29.995Z,15.48
2023-05-20T12:26:31.880Z,15.56
2023-05-20T12:31:35.162Z,15.88
2023-05-20T12:36:37.195Z,16.06
2023-05-20T12:41:39.112Z,15.79
2023-05-20T12:46:41.171Z,16.16
2023-05-20T12:51:43.132Z,16.06
2023-05-20T12:56:45.169Z,16.04
2023-05-20T13:01:47.161Z,15.93
2023-05-20T13:06:49.130Z,15.91
2023-05-20T13:11:51.077Z,15.96
2023-05-20T13:16:52.932Z,16.02
2023-05-20T13:21:54.867Z,16.16
2023-05-20T13:26:56.784Z,16.22
2023-05-20T13:32:00.962Z,16.40
2023-05-20T13:37:03.805Z,16.22
2023-05-20T13:42:05.994Z,16.05
2023-05-20T13:47:07.871Z,15.95
2023-05-20T13:52:09.823Z,16.27
2023-05-20T13:57:11.947Z,16.09
2023-05-20T14:02:13.922Z,15.84
2023-05-20T14:07:16.061Z,15.83
2023-05-20T14:12:17.994Z,15.75
2023-05-20T14:17:19.954Z,15.71
2023-05-20T14:22:21.956Z,15.33
2023-05-20T14:27:23.944Z,15.23
2023-05-20T14:32:25.964Z,15.33
2023-05-20T14:37:27.984Z,15.34
2023-05-20T14:42:29.941Z,15.20
2023-05-20T14:47:31.865Z,15.10
2023-05-20T14:52:33.875Z,15.20
2023-05-20T14:57:35.826Z,14.90
2023-05-20T15:02:37.925Z,15.50
2023-05-20T15:07:39.790Z,15.60
2023-05-20T15:12:41.514Z,15.60
2023-05-20T15:17:43.552Z,15.51
2023-05-20T15:22:45.524Z,15.69
2023-05-20T15:27:47.387Z,15.52
2023-05-20T15:32:49.348Z,15.30
2023-05-20T15:37:51.307Z,15.23
2023-05-20T15:42:53.252Z,15.21
2023-05-20T15:47:55.373Z,15.18
2023-05-20T15:52:57.399Z,14.78
2023-05-20T15:57:59.479Z,14.63
2023-05-20T16:03:01.435Z,14.62
2023-05-20T16:08:03.341Z,14.49
2023-05-20T16:13:05.255Z,14.37
2023-05-20T16:18:07.235Z,14.34
2023-05-20T16:23:09.152Z,14.43
2023-05-20T16:28:11.258Z,14.27
2023-05-20T16:33:13.388Z,14.16
2023-05-20T16:38:15.361Z,14.01
2023-05-20T16:43:17.263Z,13.88
2023-05-20T16:48:19.244Z,13.52
2023-05-20T16:53:21.181Z,13.54
2023-05-20T16:58:23.171Z,13.42
2023-05-20T17:03:25.200Z,13.24
2023-05-20T17:08:27.236Z,13.05
2023-05-20T17:13:29.224Z,12.88
2023-05-20T17:18:31.206Z,12.72
2023-05-20T17:23:33.083Z,12.62
2023-05-20T17:28:34.998Z,12.59
2023-05-20T17:33:37.100Z,12.37
2023-05-20T17:38:39.215Z,12.26
2023-05-20T17:43:41.139Z,12.09
2023-05-20T17:48:42.978Z,11.97
2023-05-20T17:53:44.916Z,12.00
2023-05-20T17:58:47.001Z,11.95
2023-05-20T18:03:49.254Z,11.95
2023-05-20T18:08:51.081Z,11.75
2023-05-20T18:13:52.875Z,11.75
2023-05-20T18:18:55.329Z,11.66
2023-05-20T18:23:57.194Z,11.63
2023-05-20T18:28:59.048Z,11.59
2023-05-20T18:34:01.061Z,11.61
2023-05-20T18:39:03.050Z,11.56
2023-05-20T18:44:05.784Z,11.50
2023-05-20T18:49:08.100Z,11.54
2023-05-20T18:54:10.029Z,11.62
2023-05-20T18:59:11.859Z,11.64
2023-05-20T19:04:13.732Z,11.63
2023-05-20T19:09:15.637Z,11.61
2023-05-20T19:14:17.508Z,11.59
2023-05-20T19:19:19.543Z,11.59
2023-05-20T19:24:21.595Z,11.52
2023-05-20T19:29:23.631Z,11.49
2023-05-20T19:34:25.625Z,11.47
2023-05-20T19:39:27.702Z,11.36
2023-05-20T19:44:29.649Z,11.29
2023-05-20T19:49:31.652Z,11.10
2023-05-20T19:54:33.815Z,11.09
2023-05-20T19:59:35.810Z,11.10
2023-05-20T20:04:37.838Z,11.08
2023-05-20T20:09:39.744Z,11.00
2023-05-20T20:14:41.681Z,10.87
2023-05-20T20:19:44.431Z,10.92
2023-05-20T20:24:46.290Z,10.89
2023-05-20T20:29:48.244Z,10.93
2023-05-20T20:34:50.252Z,10.91
2023-05-20T20:39:52.224Z,10.97
2023-05-20T20:44:54.254Z,10.91
2023-05-20T20:49:56.491Z,10.91
2023-05-20T20:54:58.484Z,10.91
2023-05-20T21:00:00.771Z,10.91
2023-05-20T21:05:02.721Z,10.91
2023-05-20T21:10:07.084Z,10.88
2023-05-20T21:15:09.919Z,10.77
2023-05-20T21:20:12.236Z,10.74
2023-05-20T21:25:14.112Z,10.74
2023-05-20T21:30:16.080Z,10.67
2023-05-20T21:35:17.983Z,10.54
2023-05-20T21:40:20.003Z,10.50
2023-05-20T21:45:23.141Z,10.41
2023-05-20T21:50:25.033Z,10.42
2023-05-20T21:55:27.014Z,10.43
2023-05-20T22:00:28.998Z,10.42
2023-05-20T22:05:30.954Z,10.39
2023-05-20T22:10:32.819Z,10.39
2023-05-20T22:15:34.884Z,10.37
2023-05-20T22:20:36.815Z,10.31
2023-05-20T22:25:38.674Z,10.24
2023-05-20T22:30:40.572Z,10.25
2023-05-20T22:35:42.519Z,10.26
2023-05-20T22:40:44.426Z,10.32
2023-05-20T22:45:46.306Z,10.36
2023-05-20T22:50:48.480Z,10.38
2023-05-20T22:55:50.453Z,10.47
2023-05-20T23:00:52.350Z,10.46
2023-05-20T23:05:54.210Z,10.47
2023-05-20T23:10:56.068Z,10.48
2023-05-20T23:15:57.955Z,10.52
2023-05-20T23:20:59.885Z,10.52
2023-05-20T23:26:01.849Z,10.53
2023-05-20T23:31:03.869Z,10.55
2023-05-20T23:36:06.169Z,10.42
2023-05-20T23:41:08.103Z,10.45
2023-05-20T23:46:10.125Z,10.39
2023-05-20T23:51:12.071Z,10.25
2023-05-20T23:56:13.976Z,10.36
